Time;durP1;ratioP1;P1;durP2;ratioP2;P2;SDS_P1;SDS_P2;PMS_P1;PMS_P2;Temp;Humidity;BMP_temperature;BMP_pressure;BME280_temperature;BME280_humidity;BME280_pressure;Samples;Min_cycle;Max_cycle;Signal;HPM_P1;HPM_P2
2023/10/28 00:01:13;;;;;;;25.88;12.68;;;;;;;;;;6224780;22;20066;-86
2023/10/28 00:03:40;;;;;;;25.02;11.63;;;;;;;;;;6250222;22;20054;-85
2023/10/28 00:06:07;;;;;;;24.98;12.75;;;;;;;;;;6249984;22;20059;-86
2023/10/28 00:08:33;;;;;;;28.13;13.18;;;;;;;;;;6224369;22;20026;-85
2023/10/28 00:11:00;;;;;;;29.00;12.77;;;;;;;;;;6249849;22;20019;-85
2023/10/28 00:13:26;;;;;;;25.50;13.00;;;;;;;;;;6249225;22;20098;-85
2023/10/28 00:15:52;;;;;;;29.20;13.88;;;;;;;;;;6249511;22;20034;-86
2023/10/28 00:18:18;;;;;;;26.30;13.38;;;;;;;;;;6249817;22;20023;-85
2023/10/28 00:20:44;;;;;;;29.75;13.60;;;;;;;;;;6249064;22;20016;-86
2023/10/28 00:23:11;;;;;;;26.95;12.88;;;;;;;;;;6249470;22;20047;-85
2023/10/28 00:25:37;;;;;;;28.45;13.88;;;;;;;;;;6249742;22;20019;-85
2023/10/28 00:28:04;;;;;;;27.77;12.98;;;;;;;;;;6249257;22;20091;-86
2023/10/28 00:30:30;;;;;;;26.75;13.55;;;;;;;;;;6249196;22;20020;-86
2023/10/28 00:32:58;;;;;;;29.15;14.35;;;;;;;;;;6248720;22;20026;-86
2023/10/28 00:35:24;;;;;;;29.25;14.13;;;;;;;;;;6249670;22;20329;-85
2023/10/28 00:37:50;;;;;;;29.70;14.48;;;;;;;;;;6224245;22;20096;-86
2023/10/28 00:40:17;;;;;;;29.38;14.18;;;;;;;;;;6224507;22;20051;-86
2023/10/28 00:42:45;;;;;;;30.70;14.38;;;;;;;;;;6249159;22;20019;-86
2023/10/28 00:45:13;;;;;;;33.78;16.45;;;;;;;;;;6249003;22;20016;-86
2023/10/28 00:47:40;;;;;;;31.73;15.45;;;;;;;;;;6248904;22;20025;-86
2023/10/28 00:50:10;;;;;;;32.45;15.68;;;;;;;;;;6250035;22;20027;-86
2023/10/28 00:52:47;;;;;;;33.15;16.27;;;;;;;;;;6249665;22;20452;-86
2023/10/28 00:55:15;;;;;;;35.50;17.02;;;;;;;;;;6276464;22;20027;-85
2023/10/28 00:57:42;;;;;;;40.65;18.85;;;;;;;;;;6248386;22;20094;-86
2023/10/28 01:00:09;;;;;;;36.85;17.90;;;;;;;;;;6248652;22;20012;-86
2023/10/28 01:02:35;;;;;;;38.95;19.40;;;;;;;;;;6249417;22;20016;-86
2023/10/28 01:05:02;;;;;;;41.95;20.42;;;;;;;;;;6248592;22;20016;-86
2023/10/28 01:07:28;;;;;;;41.53;19.30;;;;;;;;;;6249669;22;20094;-86
2023/10/28 01:09:55;;;;;;;41.40;19.25;;;;;;;;;;6249393;22;20073;-86
2023/10/28 01:12:23;;;;;;;41.25;21.27;;;;;;;;;;6249028;22;20023;-86
2023/10/28 01:14:50;;;;;;;40.08;20.63;;;;;;;;;;6248954;22;20077;-85
2023/10/28 01:17:16;;;;;;;45.25;22.33;;;;;;;;;;6248348;22;20458;-85
2023/10/28 01:19:42;;;;;;;44.60;21.88;;;;;;;;;;6249108;22;20019;-86
2023/10/28 01:22:08;;;;;;;49.47;24.70;;;;;;;;;;6249118;22;20142;-85
2023/10/28 01:24:35;;;;;;;44.05;23.40;;;;;;;;;;6248866;22;20046;-85
2023/10/28 01:27:01;;;;;;;44.65;24.00;;;;;;;;;;6248883;22;20038;-85
2023/10/28 01:29:28;;;;;;;46.67;24.17;;;;;;;;;;6249207;22;20428;-85
2023/10/28 01:31:55;;;;;;;43.33;22.85;;;;;;;;;;6249014;22;20042;-86
2023/10/28 01:34:22;;;;;;;45.83;23.55;;;;;;;;;;6248762;22;20456;-85
2023/10/28 01:36:49;;;;;;;44.72;23.20;;;;;;;;;;6248707;22;20054;-86
2023/10/28 01:39:15;;;;;;;43.78;24.40;;;;;;;;;;6249239;22;20015;-86
2023/10/28 01:41:42;;;;;;;45.75;24.33;;;;;;;;;;6248427;22;20034;-85
2023/10/28 01:44:08;;;;;;;42.85;24.75;;;;;;;;;;6249130;22;20027;-85
2023/10/28 01:46:35;;;;;;;47.50;24.13;;;;;;;;;;6248559;22;20046;-86
2023/10/28 01:49:01;;;;;;;49.35;23.50;;;;;;;;;;6249022;22;20069;-86
2023/10/28 01:51:27;;;;;;;43.88;24.13;;;;;;;;;;6223466;22;20020;-86
2023/10/28 01:53:54;;;;;;;45.45;24.80;;;;;;;;;;6232889;23;20016;-85
2023/10/28 01:56:20;;;;;;;46.13;24.33;;;;;;;;;;6217678;23;20456;-86
2023/10/28 01:58:46;;;;;;;49.00;25.35;;;;;;;;;;6218712;23;20341;-86
2023/10/28 02:01:12;;;;;;;47.75;24.40;;;;;;;;;;6218364;23;20016;-85
2023/10/28 02:03:38;;;;;;;46.90;25.33;;;;;;;;;;6193368;23;20012;-86
2023/10/28 02:06:04;;;;;;;44.45;24.27;;;;;;;;;;6218240;23;20065;-86
2023/10/28 02:08:30;;;;;;;48.40;25.05;;;;;;;;;;6218714;23;20119;-85
2023/10/28 02:10:56;;;;;;;42.13;23.80;;;;;;;;;;6193104;23;20115;-86
2023/10/28 02:13:22;;;;;;;47.65;25.92;;;;;;;;;;6218644;23;20186;-85
2023/10/28 02:15:49;;;;;;;44.88;24.67;;;;;;;;;;6217684;23;20016;-85
2023/10/28 02:18:18;;;;;;;48.10;24.85;;;;;;;;;;6218448;23;20058;-85
2023/10/28 02:20:45;;;;;;;47.63;24.50;;;;;;;;;;6218300;23;20059;-86
2023/10/28 02:23:13;;;;;;;47.00;24.58;;;;;;;;;;6218192;23;20012;-86
2023/10/28 02:25:41;;;;;;;45.78;24.40;;;;;;;;;;6217785;23;20020;-85
2023/10/28 02:28:07;;;;;;;45.17;24.60;;;;;;;;;;6218213;23;20016;-85
2023/10/28 02:30:33;;;;;;;50.30;24.80;;;;;;;;;;6217468;23;20399;-86
2023/10/28 02:32:58;;;;;;;53.30;26.45;;;;;;;;;;6217817;23;20016;-85
2023/10/28 02:35:25;;;;;;;52.22;25.73;;;;;;;;;;6218184;23;20020;-85
2023/10/28 02:37:52;;;;;;;44.80;22.95;;;;;;;;;;6217800;23;20016;-85
2023/10/28 02:40:18;;;;;;;44.78;24.30;;;;;;;;;;6217366;23;20016;-85
2023/10/28 02:42:44;;;;;;;49.92;25.25;;;;;;;;;;6218068;23;20487;-86
2023/10/28 02:45:10;;;;;;;50.40;24.15;;;;;;;;;;6218250;23;20016;-88
2023/10/28 02:47:36;;;;;;;48.33;24.05;;;;;;;;;;6193879;23;20027;-89
2023/10/28 02:50:04;;;;;;;50.63;24.00;;;;;;;;;;6219790;23;20066;-89
2023/10/28 02:52:31;;;;;;;45.75;22.60;;;;;;;;;;6194054;23;20020;-88
2023/10/28 02:54:57;;;;;;;44.22;23.02;;;;;;;;;;6193162;23;20053;-86
2023/10/28 02:57:23;;;;;;;44.72;22.45;;;;;;;;;;6217982;23;20081;-85
2023/10/28 02:59:49;;;;;;;50.55;25.27;;;;;;;;;;6217756;23;20022;-85
2023/10/28 03:02:15;;;;;;;47.95;24.15;;;;;;;;;;6217826;23;20016;-85
2023/10/28 03:04:41;;;;;;;49.17;23.48;;;;;;;;;;6217931;23;20390;-85
2023/10/28 03:07:07;;;;;;;46.40;24.63;;;;;;;;;;6217243;23;20098;-85
2023/10/28 03:09:33;;;;;;;49.53;24.75;;;;;;;;;;6217836;23;20020;-85
2023/10/28 03:11:59;;;;;;;46.22;23.15;;;;;;;;;;6218166;23;20016;-85
2023/10/28 03:14:25;;;;;;;45.08;22.52;;;;;;;;;;6217294;23;20106;-85
2023/10/28 03:16:51;;;;;;;45.92;23.02;;;;;;;;;;6218039;23;20084;-85
2023/10/28 03:19:17;;;;;;;47.78;23.58;;;;;;;;;;6217904;23;20515;-86
2023/10/28 03:21:43;;;;;;;49.92;23.13;;;;;;;;;;6194412;23;20103;-85
2023/10/28 03:24:09;;;;;;;42.60;22.27;;;;;;;;;;6219954;23;20107;-85
2023/10/28 03:26:36;;;;;;;44.38;21.50;;;;;;;;;;6220152;23;20024;-85
2023/10/28 03:29:02;;;;;;;41.67;21.05;;;;;;;;;;6219438;23;20012;-86
2023/10/28 03:31:28;;;;;;;39.92;21.50;;;;;;;;;;6219901;23;20348;-85
2023/10/28 03:33:54;;;;;;;42.67;22.42;;;;;;;;;;6219714;23;20457;-86
2023/10/28 03:36:21;;;;;;;44.80;22.77;;;;;;;;;;6219960;23;20016;-85
2023/10/28 03:38:47;;;;;;;44.83;20.42;;;;;;;;;;6219885;23;20028;-86
2023/10/28 03:41:13;;;;;;;46.85;21.60;;;;;;;;;;6219818;23;20405;-86
2023/10/28 03:43:41;;;;;;;47.92;21.92;;;;;;;;;;6246485;23;20062;-86
2023/10/28 03:46:07;;;;;;;42.17;21.38;;;;;;;;;;6219863;23;20016;-86
2023/10/28 03:48:36;;;;;;;42.78;20.65;;;;;;;;;;6219534;23;20082;-85
2023/10/28 03:51:03;;;;;;;43.92;19.90;;;;;;;;;;6219911;23;20457;-85
2023/10/28 03:53:29;;;;;;;41.22;19.23;;;;;;;;;;6219659;23;20074;-86
2023/10/28 03:55:56;;;;;;;48.47;20.95;;;;;;;;;;6194682;23;20098;-86
2023/10/28 03:58:22;;;;;;;36.53;18.27;;;;;;;;;;6193781;23;20027;-86
2023/10/28 04:00:55;;;;;;;40.92;20.15;;;;;;;;;;6219826;23;20051;-85
2023/10/28 04:03:21;;;;;;;34.22;18.65;;;;;;;;;;6219343;23;20062;-85
2023/10/28 04:05:48;;;;;;;35.83;18.65;;;;;;;;;;6219407;23;20349;-86
2023/10/28 04:08:14;;;;;;;34.67;18.02;;;;;;;;;;6219838;23;20020;-85
2023/10/28 04:10:41;;;;;;;36.90;18.33;;;;;;;;;;6219642;23;20016;-86
2023/10/28 04:13:07;;;;;;;42.00;18.90;;;;;;;;;;6219367;23;20028;-86
2023/10/28 04:15:35;;;;;;;36.80;19.25;;;;;;;;;;6220024;23;20061;-86
2023/10/28 04:18:01;;;;;;;32.08;17.02;;;;;;;;;;6218859;23;20016;-85
2023/10/28 04:20:27;;;;;;;38.47;18.27;;;;;;;;;;6219574;23;20023;-85
2023/10/28 04:22:53;;;;;;;34.92;16.95;;;;;;;;;;6219601;23;20345;-85
2023/10/28 04:25:19;;;;;;;36.47;18.85;;;;;;;;;;6219528;23;20077;-85
2023/10/28 04:27:45;;;;;;;32.92;17.33;;;;;;;;;;6218936;23;20016;-85
2023/10/28 04:30:12;;;;;;;31.38;17.58;;;;;;;;;;6193882;23;20123;-86
2023/10/28 04:32:38;;;;;;;37.40;17.42;;;;;;;;;;6193880;23;20016;-85
2023/10/28 04:35:05;;;;;;;38.83;18.02;;;;;;;;;;6220498;23;20016;-86
2023/10/28 04:37:32;;;;;;;37.63;17.58;;;;;;;;;;6219372;23;20012;-85
2023/10/28 04:39:58;;;;;;;35.67;17.25;;;;;;;;;;6219323;23;20376;-85
2023/10/28 04:42:24;;;;;;;33.97;17.13;;;;;;;;;;6218411;23;20023;-85
2023/10/28 04:44:50;;;;;;;35.38;18.25;;;;;;;;;;6218578;23;20146;-86
2023/10/28 04:47:16;;;;;;;38.70;17.10;;;;;;;;;;6219019;23;20020;-86
2023/10/28 04:49:42;;;;;;;35.83;17.67;;;;;;;;;;6219373;23;20035;-86
2023/10/28 04:52:08;;;;;;;34.55;16.77;;;;;;;;;;6219227;23;20016;-86
2023/10/28 04:54:35;;;;;;;36.67;16.77;;;;;;;;;;6219370;23;20137;-86
2023/10/28 04:57:03;;;;;;;34.75;16.88;;;;;;;;;;6218473;22;20019;-86
2023/10/28 04:59:29;;;;;;;34.95;16.98;;;;;;;;;;6218615;23;20020;-86
2023/10/28 05:01:56;;;;;;;36.22;17.58;;;;;;;;;;6218600;23;20356;-86
2023/10/28 05:04:25;;;;;;;35.50;17.25;;;;;;;;;;6217695;23;20075;-86
2023/10/28 05:06:54;;;;;;;32.05;16.55;;;;;;;;;;6218869;23;20460;-86
2023/10/28 05:09:21;;;;;;;37.55;18.17;;;;;;;;;;6219132;23;20035;-86
2023/10/28 05:11:48;;;;;;;38.13;17.05;;;;;;;;;;6217776;23;20027;-86
2023/10/28 05:14:14;;;;;;;32.28;16.08;;;;;;;;;;6218396;23;20018;-86
2023/10/28 05:16:40;;;;;;;35.70;17.00;;;;;;;;;;6219000;23;20016;-85
2023/10/28 05:19:08;;;;;;;34.45;16.23;;;;;;;;;;6218790;23;20087;-86
2023/10/28 05:21:34;;;;;;;34.53;16.05;;;;;;;;;;6218846;23;20020;-85
2023/10/28 05:24:00;;;;;;;35.78;16.55;;;;;;;;;;6217960;23;20024;-85
2023/10/28 05:26:26;;;;;;;40.30;18.20;;;;;;;;;;6191800;23;20020;-85
2023/10/28 05:28:54;;;;;;;40.67;19.23;;;;;;;;;;6218603;23;20016;-85
2023/10/28 05:31:20;;;;;;;37.97;19.10;;;;;;;;;;6218731;23;20020;-88
2023/10/28 05:33:46;;;;;;;42.25;20.35;;;;;;;;;;6217682;23;20016;-86
2023/10/28 05:36:12;;;;;;;45.40;19.23;;;;;;;;;;6193674;23;20016;-85
2023/10/28 05:38:38;;;;;;;47.00;19.58;;;;;;;;;;6218752;23;20031;-87
2023/10/28 05:41:04;;;;;;;51.67;22.60;;;;;;;;;;6192140;23;20020;-86
2023/10/28 05:43:31;;;;;;;51.67;22.15;;;;;;;;;;6192842;23;20043;-86
2023/10/28 05:45:58;;;;;;;45.70;20.73;;;;;;;;;;6217712;23;20028;-86
2023/10/28 05:48:24;;;;;;;44.63;20.58;;;;;;;;;;6245445;23;20016;-84
2023/10/28 05:50:52;;;;;;;46.90;22.35;;;;;;;;;;6245903;23;20024;-90
2023/10/28 05:53:18;;;;;;;44.25;20.38;;;;;;;;;;6218132;23;20020;-85
2023/10/28 05:55:44;;;;;;;42.55;21.20;;;;;;;;;;6218432;23;20024;-85
2023/10/28 05:58:10;;;;;;;44.90;20.70;;;;;;;;;;6218260;23;20052;-86
2023/10/28 06:00:38;;;;;;;44.58;20.85;;;;;;;;;;6218261;23;20337;-85
2023/10/28 06:03:04;;;;;;;44.80;21.95;;;;;;;;;;6218310;23;20027;-86
2023/10/28 06:05:30;;;;;;;44.33;20.88;;;;;;;;;;6193424;23;20012;-86
2023/10/28 06:07:56;;;;;;;40.78;20.45;;;;;;;;;;6218366;23;20091;-87
2023/10/28 06:10:24;;;;;;;50.58;20.95;;;;;;;;;;6218692;23;20531;-86
2023/10/28 06:12:50;;;;;;;41.08;20.65;;;;;;;;;;6218474;23;20020;-86
2023/10/28 06:15:16;;;;;;;44.30;21.98;;;;;;;;;;6218370;23;20046;-86
2023/10/28 06:17:45;;;;;;;47.85;21.60;;;;;;;;;;6193239;23;20013;-86
2023/10/28 06:20:11;;;;;;;43.65;21.77;;;;;;;;;;6218003;23;20081;-85
2023/10/28 06:22:37;;;;;;;51.15;21.63;;;;;;;;;;6218415;23;20465;-85
2023/10/28 06:25:04;;;;;;;42.35;20.17;;;;;;;;;;6218543;23;20182;-85
2023/10/28 06:27:32;;;;;;;49.03;21.50;;;;;;;;;;6193254;23;20012;-85
2023/10/28 06:29:59;;;;;;;47.60;20.60;;;;;;;;;;6218613;23;20020;-85
2023/10/28 06:32:27;;;;;;;46.35;21.80;;;;;;;;;;6218022;23;20437;-85
2023/10/28 06:34:54;;;;;;;52.10;21.58;;;;;;;;;;6217773;23;20031;-85
2023/10/28 06:37:20;;;;;;;42.75;21.08;;;;;;;;;;6217896;23;20020;-85
2023/10/28 06:39:49;;;;;;;45.90;21.55;;;;;;;;;;6218264;23;20020;-85
2023/10/28 06:42:15;;;;;;;46.20;20.63;;;;;;;;;;6218048;23;20016;-85
2023/10/28 06:44:43;;;;;;;43.83;22.00;;;;;;;;;;6218370;23;20030;-85
2023/10/28 06:47:09;;;;;;;45.72;20.48;;;;;;;;;;6218051;23;20348;-85
2023/10/28 06:49:35;;;;;;;39.55;20.88;;;;;;;;;;6218112;23;20016;-85
2023/10/28 06:52:01;;;;;;;47.28;20.02;;;;;;;;;;6218732;23;20436;-89
2023/10/28 06:54:27;;;;;;;43.33;20.88;;;;;;;;;;6218183;23;20028;-87
2023/10/28 06:56:53;;;;;;;50.45;21.17;;;;;;;;;;6193374;22;20012;-88
2023/10/28 06:59:24;;;;;;;43.95;20.88;;;;;;;;;;6194391;23;20027;-86
2023/10/28 07:01:50;;;;;;;41.67;20.70;;;;;;;;;;6193348;23;20024;-86
2023/10/28 07:04:16;;;;;;;42.20;20.75;;;;;;;;;;6192970;23;20457;-86
2023/10/28 07:06:42;;;;;;;39.25;20.17;;;;;;;;;;6193201;23;20016;-86
2023/10/28 07:09:08;;;;;;;45.60;20.27;;;;;;;;;;6193479;23;20058;-85
2023/10/28 07:11:34;;;;;;;50.38;20.95;;;;;;;;;;6193144;23;20019;-86
2023/10/28 07:14:00;;;;;;;47.30;20.52;;;;;;;;;;6218546;23;20019;-86
2023/10/28 07:16:27;;;;;;;42.65;20.95;;;;;;;;;;6218623;23;20051;-86
2023/10/28 07:18:53;;;;;;;42.67;19.90;;;;;;;;;;6193620;23;20495;-86
2023/10/28 07:21:20;;;;;;;39.90;20.17;;;;;;;;;;6193863;23;20356;-86
2023/10/28 07:23:47;;;;;;;43.15;20.38;;;;;;;;;;6218420;23;20027;-85
2023/10/28 07:26:13;;;;;;;41.30;19.73;;;;;;;;;;6193081;23;20095;-86
2023/10/28 07:28:39;;;;;;;39.50;18.67;;;;;;;;;;6193426;23;20070;-86
2023/10/28 07:31:06;;;;;;;37.42;18.45;;;;;;;;;;6218589;23;20012;-86
2023/10/28 07:33:32;;;;;;;39.95;18.02;;;;;;;;;;6193139;23;20015;-86
2023/10/28 07:36:02;;;;;;;35.20;17.20;;;;;;;;;;6218756;23;20540;-86
2023/10/28 07:38:28;;;;;;;31.60;17.02;;;;;;;;;;6218323;23;20052;-86
2023/10/28 07:40:55;;;;;;;30.52;16.75;;;;;;;;;;6218613;23;20441;-86
2023/10/28 07:43:21;;;;;;;31.95;16.42;;;;;;;;;;6218143;23;20039;-86
2023/10/28 07:45:47;;;;;;;30.67;15.10;;;;;;;;;;6193562;23;20345;-86
2023/10/28 07:48:14;;;;;;;29.52;14.68;;;;;;;;;;6218785;23;20016;-86
2023/10/28 07:50:41;;;;;;;25.60;13.55;;;;;;;;;;6218982;23;20017;-86
2023/10/28 07:53:07;;;;;;;28.10;14.70;;;;;;;;;;6192621;23;20016;-86
2023/10/28 07:55:33;;;;;;;24.10;13.18;;;;;;;;;;6218600;23;20348;-86
2023/10/28 07:58:00;;;;;;;23.60;13.23;;;;;;;;;;6217656;23;20021;-85
2023/10/28 08:00:29;;;;;;;21.88;12.60;;;;;;;;;;6218014;23;20516;-86
2023/10/28 08:02:55;;;;;;;24.90;13.27;;;;;;;;;;6217363;23;20454;-86
2023/10/28 08:05:21;;;;;;;21.27;12.60;;;;;;;;;;6217861;23;20063;-85
2023/10/28 08:07:48;;;;;;;21.23;12.15;;;;;;;;;;6219572;23;20469;-86
2023/10/28 08:10:14;;;;;;;23.88;12.45;;;;;;;;;;6219685;23;20012;-85
2023/10/28 08:12:40;;;;;;;19.77;12.00;;;;;;;;;;6219504;23;20020;-86
2023/10/28 08:15:09;;;;;;;20.15;11.50;;;;;;;;;;6219845;23;20031;-85
2023/10/28 08:17:35;;;;;;;17.35;11.20;;;;;;;;;;6219207;23;20022;-86
2023/10/28 08:20:03;;;;;;;19.42;10.70;;;;;;;;;;6219826;23;20016;-85
2023/10/28 08:22:30;;;;;;;15.88;9.82;;;;;;;;;;6219528;23;20503;-86
2023/10/28 08:24:56;;;;;;;15.23;10.38;;;;;;;;;;6219748;23;20023;-86
2023/10/28 08:27:22;;;;;;;15.70;10.27;;;;;;;;;;6194504;23;20069;-86
2023/10/28 08:29:48;;;;;;;17.25;9.50;;;;;;;;;;6219725;23;20099;-85
2023/10/28 08:32:18;;;;;;;13.93;8.70;;;;;;;;;;6219458;23;20021;-86
2023/10/28 08:34:44;;;;;;;16.25;8.65;;;;;;;;;;6219898;23;20020;-86
2023/10/28 08:37:11;;;;;;;13.80;7.85;;;;;;;;;;6219307;23;20023;-85
2023/10/28 08:39:37;;;;;;;14.10;8.60;;;;;;;;;;6219331;23;20071;-86
2023/10/28 08:42:05;;;;;;;15.02;8.07;;;;;;;;;;6219123;23;20020;-86
2023/10/28 08:44:35;;;;;;;12.40;8.10;;;;;;;;;;6219358;23;20070;-85
2023/10/28 08:47:06;;;;;;;12.63;8.15;;;;;;;;;;6218974;23;20451;-86
2023/10/28 08:49:36;;;;;;;9.82;6.65;;;;;;;;;;6219212;23;20055;-85
2023/10/28 08:52:03;;;;;;;12.95;7.32;;;;;;;;;;6218939;23;20016;-85
2023/10/28 08:54:29;;;;;;;12.98;6.95;;;;;;;;;;6219077;23;20360;-85
2023/10/28 08:56:59;;;;;;;12.68;7.18;;;;;;;;;;6219026;22;20027;-85
2023/10/28 08:59:26;;;;;;;13.50;7.00;;;;;;;;;;6219391;23;20016;-85
2023/10/28 09:01:52;;;;;;;10.05;6.90;;;;;;;;;;6218980;23;20047;-85
2023/10/28 09:04:21;;;;;;;12.82;7.13;;;;;;;;;;6218953;23;20020;-85
2023/10/28 09:06:52;;;;;;;9.45;6.45;;;;;;;;;;6219020;23;20016;-85
2023/10/28 09:09:21;;;;;;;10.20;6.53;;;;;;;;;;6219475;23;20028;-85
2023/10/28 09:11:47;;;;;;;11.50;6.95;;;;;;;;;;6219041;23;20450;-85
2023/10/28 09:14:14;;;;;;;11.98;7.03;;;;;;;;;;6219168;23;20046;-85
2023/10/28 09:16:40;;;;;;;10.13;6.68;;;;;;;;;;6218382;23;20467;-85
2023/10/28 09:19:08;;;;;;;11.43;7.28;;;;;;;;;;6217877;23;20087;-85
2023/10/28 09:21:36;;;;;;;10.63;7.00;;;;;;;;;;6219446;23;20024;-85
2023/10/28 09:24:02;;;;;;;13.27;7.70;;;;;;;;;;6218991;23;20016;-85
2023/10/28 09:26:29;;;;;;;10.63;7.00;;;;;;;;;;6218749;23;20028;-85
2023/10/28 09:28:58;;;;;;;11.90;6.95;;;;;;;;;;6218901;23;20453;-85
2023/10/28 09:31:25;;;;;;;10.60;7.45;;;;;;;;;;6218898;23;20107;-86
2023/10/28 09:33:51;;;;;;;13.30;7.45;;;;;;;;;;6218485;23;20487;-85
2023/10/28 09:36:18;;;;;;;13.60;7.90;;;;;;;;;;6193821;23;20020;-85
2023/10/28 09:38:47;;;;;;;11.00;7.57;;;;;;;;;;6193716;23;20019;-85
2023/10/28 09:41:14;;;;;;;10.20;6.75;;;;;;;;;;6218804;23;20019;-86
2023/10/28 09:43:40;;;;;;;11.13;7.80;;;;;;;;;;6219094;23;20012;-86
2023/10/28 09:46:07;;;;;;;8.88;6.80;;;;;;;;;;6218719;23;20016;-86
2023/10/28 09:48:33;;;;;;;12.07;7.82;;;;;;;;;;6218293;23;20024;-86
2023/10/28 09:51:00;;;;;;;11.85;6.78;;;;;;;;;;6193846;23;20020;-86
2023/10/28 09:53:31;;;;;;;11.35;7.47;;;;;;;;;;6218645;23;20020;-85
2023/10/28 09:55:57;;;;;;;10.45;7.28;;;;;;;;;;6219280;23;20020;-86
2023/10/28 09:58:27;;;;;;;11.45;7.40;;;;;;;;;;6218155;23;20020;-86
2023/10/28 10:00:57;;;;;;;10.15;7.10;;;;;;;;;;6245661;23;20090;-85
2023/10/28 10:03:33;;;;;;;9.23;6.07;;;;;;;;;;6218749;23;20131;-85
2023/10/28 10:05:59;;;;;;;11.18;6.50;;;;;;;;;;6246495;23;20058;-85
2023/10/28 10:08:25;;;;;;;12.93;7.28;;;;;;;;;;6193749;23;20020;-86
2023/10/28 10:10:57;;;;;;;9.77;6.68;;;;;;;;;;6192294;23;20043;-85
2023/10/28 10:13:24;;;;;;;8.82;6.32;;;;;;;;;;6218036;23;20019;-86
2023/10/28 10:15:55;;;;;;;13.60;6.90;;;;;;;;;;6218513;23;20088;-85
2023/10/28 10:18:31;;;;;;;11.40;6.97;;;;;;;;;;6193669;23;20024;-85
2023/10/28 10:21:09;;;;;;;16.65;6.80;;;;;;;;;;6245979;23;20012;-85
2023/10/28 10:23:41;;;;;;;10.57;7.30;;;;;;;;;;6218613;23;20282;-86
2023/10/28 10:26:07;;;;;;;10.98;6.82;;;;;;;;;;6245744;23;20026;-85
2023/10/28 10:28:33;;;;;;;12.02;6.93;;;;;;;;;;6192834;23;20054;-85
2023/10/28 10:31:08;;;;;;;9.75;6.53;;;;;;;;;;6245505;23;20461;-85
2023/10/28 10:33:34;;;;;;;10.23;6.80;;;;;;;;;;6245853;23;20042;-85
2023/10/28 10:36:00;;;;;;;8.57;6.93;;;;;;;;;;6193903;23;20016;-85
2023/10/28 10:38:28;;;;;;;11.60;6.60;;;;;;;;;;6193109;23;20457;-85
2023/10/28 10:40:58;;;;;;;13.20;6.47;;;;;;;;;;6218611;23;20023;-85
2023/10/28 10:43:29;;;;;;;11.23;6.80;;;;;;;;;;6244982;23;20127;-85
2023/10/28 10:45:55;;;;;;;10.10;6.93;;;;;;;;;;6192865;23;20409;-85
2023/10/28 10:48:21;;;;;;;10.45;6.32;;;;;;;;;;6193394;23;20032;-85
2023/10/28 10:50:47;;;;;;;12.70;7.10;;;;;;;;;;6218360;23;20119;-85
2023/10/28 10:53:13;;;;;;;9.38;6.75;;;;;;;;;;6216985;23;20353;-86
2023/10/28 10:55:40;;;;;;;8.65;6.28;;;;;;;;;;6245771;23;20012;-85
2023/10/28 10:58:06;;;;;;;10.98;6.80;;;;;;;;;;6217976;23;20020;-85
2023/10/28 11:00:36;;;;;;;11.05;6.85;;;;;;;;;;6193217;23;20016;-85
2023/10/28 11:03:03;;;;;;;8.52;6.07;;;;;;;;;;6218000;23;20046;-85
2023/10/28 11:05:32;;;;;;;11.48;6.40;;;;;;;;;;6245298;23;20062;-86
2023/10/28 11:07:58;;;;;;;11.75;6.10;;;;;;;;;;6192711;23;20039;-85
2023/10/28 11:10:25;;;;;;;9.90;5.93;;;;;;;;;;6218514;23;20021;-85
2023/10/28 11:12:52;;;;;;;9.68;6.55;;;;;;;;;;6245297;23;20017;-85
2023/10/28 11:15:21;;;;;;;9.20;6.18;;;;;;;;;;6193470;23;20101;-85
2023/10/28 11:17:48;;;;;;;10.13;6.15;;;;;;;;;;6193417;23;20020;-85
2023/10/28 11:20:19;;;;;;;11.18;6.25;;;;;;;;;;6193875;23;20020;-86
2023/10/28 11:22:46;;;;;;;11.15;6.10;;;;;;;;;;6218475;23;20052;-86
2023/10/28 11:25:12;;;;;;;10.52;6.32;;;;;;;;;;6193568;23;20058;-86
2023/10/28 11:27:38;;;;;;;11.90;6.55;;;;;;;;;;6192886;23;20032;-85
2023/10/28 11:30:07;;;;;;;7.95;5.70;;;;;;;;;;6245667;23;20016;-85
2023/10/28 11:32:38;;;;;;;11.60;5.72;;;;;;;;;;6218685;23;20016;-85
2023/10/28 11:35:05;;;;;;;8.88;5.70;;;;;;;;;;6218954;23;20087;-86
2023/10/28 11:37:31;;;;;;;8.88;5.78;;;;;;;;;;6218182;23;20016;-86
2023/10/28 11:39:57;;;;;;;10.60;5.97;;;;;;;;;;6194165;23;20071;-88
2023/10/28 11:42:23;;;;;;;11.82;6.60;;;;;;;;;;6195183;23;20016;-87
2023/10/28 11:44:50;;;;;;;11.18;6.28;;;;;;;;;;6195325;23;20081;-85
2023/10/28 11:47:17;;;;;;;10.60;6.32;;;;;;;;;;6195476;23;20020;-85
2023/10/28 11:49:43;;;;;;;11.65;6.57;;;;;;;;;;6195336;23;20344;-85
2023/10/28 11:52:12;;;;;;;8.50;6.03;;;;;;;;;;6195360;23;20016;-85
2023/10/28 11:54:38;;;;;;;10.27;6.50;;;;;;;;;;6220060;23;20082;-85
2023/10/28 11:57:04;;;;;;;13.55;6.50;;;;;;;;;;6219684;22;20020;-86
2023/10/28 11:59:30;;;;;;;11.63;5.95;;;;;;;;;;6195186;23;20016;-86
2023/10/28 12:01:58;;;;;;;10.75;6.10;;;;;;;;;;6247331;23;20511;-85
2023/10/28 12:04:25;;;;;;;10.65;6.43;;;;;;;;;;6195422;23;20020;-85
2023/10/28 12:06:51;;;;;;;9.27;5.65;;;;;;;;;;6246936;23;20016;-85
2023/10/28 12:09:17;;;;;;;12.48;6.70;;;;;;;;;;6246734;23;20023;-85
2023/10/28 12:11:44;;;;;;;12.93;6.60;;;;;;;;;;6193583;23;20048;-85
2023/10/28 12:14:13;;;;;;;11.15;6.43;;;;;;;;;;6194436;23;20118;-85
2023/10/28 12:16:39;;;;;;;9.30;5.60;;;;;;;;;;6195184;23;20094;-85
2023/10/28 12:19:05;;;;;;;10.52;6.57;;;;;;;;;;6246976;23;20113;-85
2023/10/28 12:21:32;;;;;;;9.00;5.57;;;;;;;;;;6217875;23;20095;-85
2023/10/28 12:23:58;;;;;;;9.32;5.68;;;;;;;;;;6219041;23;20016;-85
2023/10/28 12:26:24;;;;;;;10.45;8.30;;;;;;;;;;6246904;23;20047;-85
2023/10/28 12:28:52;;;;;;;9.70;5.70;;;;;;;;;;6194666;23;20016;-86
2023/10/28 12:31:24;;;;;;;17.70;12.15;;;;;;;;;;6194714;23;20114;-85
2023/10/28 12:33:51;;;;;;;11.98;6.60;;;;;;;;;;6192207;23;20039;-85
2023/10/28 12:36:18;;;;;;;12.05;7.65;;;;;;;;;;6245770;23;20016;-86
2023/10/28 12:38:44;;;;;;;12.95;9.15;;;;;;;;;;6220248;23;20459;-85
2023/10/28 12:41:10;;;;;;;10.93;5.95;;;;;;;;;;6219873;23;20023;-85
2023/10/28 12:43:36;;;;;;;9.48;4.93;;;;;;;;;;6195080;23;20016;-87
2023/10/28 12:46:03;;;;;;;9.25;5.20;;;;;;;;;;6220338;23;20100;-87
2023/10/28 12:48:30;;;;;;;9.48;5.82;;;;;;;;;;6194524;23;20016;-87
2023/10/28 12:50:59;;;;;;;12.60;6.68;;;;;;;;;;6219935;23;20042;-88
2023/10/28 12:53:26;;;;;;;10.70;5.32;;;;;;;;;;6193426;23;20024;-87
2023/10/28 12:55:52;;;;;;;8.57;5.60;;;;;;;;;;6219685;23;20078;-87
2023/10/28 12:58:18;;;;;;;12.38;5.85;;;;;;;;;;6219265;23;20051;-87
2023/10/28 13:00:44;;;;;;;7.47;5.32;;;;;;;;;;6219664;23;20016;-88
2023/10/28 13:03:10;;;;;;;12.32;5.80;;;;;;;;;;6194521;23;20012;-87
2023/10/28 13:05:36;;;;;;;9.75;5.10;;;;;;;;;;6194086;23;20395;-88
2023/10/28 13:08:03;;;;;;;10.95;8.13;;;;;;;;;;6194847;23;20051;-89
2023/10/28 13:10:29;;;;;;;10.90;5.95;;;;;;;;;;6195038;23;20455;-89
2023/10/28 13:12:55;;;;;;;9.30;5.90;;;;;;;;;;6194831;23;20424;-88
2023/10/28 13:15:21;;;;;;;9.48;6.75;;;;;;;;;;6194518;23;20024;-87
2023/10/28 13:17:48;;;;;;;11.35;6.95;;;;;;;;;;6193820;23;20086;-88
2023/10/28 13:20:16;;;;;;;11.52;6.07;;;;;;;;;;6194615;23;20074;-88
2023/10/28 13:22:45;;;;;;;8.85;5.75;;;;;;;;;;6194401;23;20012;-88
2023/10/28 13:25:11;;;;;;;8.85;6.05;;;;;;;;;;6194748;23;20062;-88
2023/10/28 13:27:39;;;;;;;9.10;5.28;;;;;;;;;;6194596;23;20023;-88
2023/10/28 13:30:06;;;;;;;9.23;6.05;;;;;;;;;;6193801;23;20027;-87
2023/10/28 13:32:32;;;;;;;8.02;5.05;;;;;;;;;;6193586;23;20330;-87
2023/10/28 13:35:00;;;;;;;7.45;4.95;;;;;;;;;;6194519;23;20027;-88
2023/10/28 13:37:26;;;;;;;9.48;5.38;;;;;;;;;;6218177;23;20046;-87
2023/10/28 13:39:52;;;;;;;6.30;4.45;;;;;;;;;;6219360;23;20087;-87
2023/10/28 13:42:18;;;;;;;9.63;5.00;;;;;;;;;;6193466;23;20016;-87
2023/10/28 13:44:44;;;;;;;8.95;5.05;;;;;;;;;;6218397;23;20065;-87
2023/10/28 13:47:10;;;;;;;8.30;4.70;;;;;;;;;;6194346;23;20061;-86
2023/10/28 13:49:36;;;;;;;9.13;5.10;;;;;;;;;;6194272;23;20016;-87
2023/10/28 13:52:03;;;;;;;7.07;5.13;;;;;;;;;;6194303;23;20440;-87
2023/10/28 13:54:31;;;;;;;9.13;4.50;;;;;;;;;;6194186;23;20059;-87
2023/10/28 13:56:59;;;;;;;8.27;4.60;;;;;;;;;;6194314;23;20120;-87
2023/10/28 13:59:28;;;;;;;8.25;4.85;;;;;;;;;;6194138;23;20024;-87
2023/10/28 14:01:54;;;;;;;9.35;4.57;;;;;;;;;;6193397;23;20016;-87
2023/10/28 14:04:20;;;;;;;10.57;5.03;;;;;;;;;;6193431;23;20016;-87
2023/10/28 14:06:46;;;;;;;9.52;5.32;;;;;;;;;;6193089;23;20047;-87
2023/10/28 14:09:14;;;;;;;11.48;6.80;;;;;;;;;;6193614;23;20344;-87
2023/10/28 14:11:40;;;;;;;12.88;7.45;;;;;;;;;;6218735;23;20019;-87
2023/10/28 14:14:08;;;;;;;10.43;6.15;;;;;;;;;;6193535;23;20398;-87
2023/10/28 14:16:35;;;;;;;8.88;5.45;;;;;;;;;;6193786;23;20024;-87
2023/10/28 14:19:03;;;;;;;7.97;4.20;;;;;;;;;;6194155;23;20028;-87
2023/10/28 14:21:29;;;;;;;9.13;4.72;;;;;;;;;;6218324;23;20020;-87